Catàleg de serveis del Meteocat
Campanya meteocatpedra

Dades de l'estació automàtica Riudecanyes

?
?
Resum diari 22:00 TU
Dades diàries de l'estació meteorològica
Temperatura mitjana 10.9 °C
Temperatura màxima 13.6 °C 15:06 TU
Temperatura mínima 7.3 °C 22:36 TU
Humitat relativa mitjana 73%
Precipitació acumulada 6.7 mm
Ratxa màxima del vent (10 m) 42.1 km/h - 312º 14:15 TU
Irradiació solar global 7.1 MJ/m2

El tram horari està expressat en Temps Universal (TU). Cal sumar una hora en horari d'hivern i dues en horari d'estiu per passar a l'hora oficial.

Riudecanyes

Metadades estació meteorol´gica
Municipi Riudecanyes
Comarca Baix Camp
Altitud 170 m
Data alta 06.02.2019
Estat actual Operativa
Dades de període
Període
TU
TM
°C
TX
°C
TN
°C
HRM
%
PPT
mm
VVM (10 m)
km/h
DVM (10 m)
graus
VVX (10 m)
km/h
RS
W/m2
00:00 - 00:30 11.4 11.6 11.1 59 0.0 8.6 281 19.8 0
00:30 - 01:00 10.9 11.1 10.7 61 0.0 10.1 285 24.1 0
01:00 - 01:30 11.1 11.2 11.0 62 0.0 11.9 298 22.0 0
01:30 - 02:00 11.3 11.5 11.1 62 0.0 15.5 288 30.2 0
02:00 - 02:30 11.1 11.3 10.9 63 0.0 11.2 295 23.4 0
02:30 - 03:00 11.0 11.0 10.9 64 0.0 7.9 304 21.2 0
03:00 - 03:30 10.9 11.1 10.7 65 0.0 7.2 125 17.3 0
03:30 - 04:00 11.3 11.4 10.8 63 0.0 10.8 302 23.0 0
04:00 - 04:30 11.1 11.3 11.0 64 0.0 11.9 300 21.6 0
04:30 - 05:00 10.9 11.0 10.7 65 0.0 12.6 304 23.0 0
05:00 - 05:30 11.0 11.1 10.8 65 0.0 13.7 303 22.7 0
05:30 - 06:00 10.8 11.1 10.7 67 0.0 13.3 309 22.0 0
06:00 - 06:30 10.2 10.8 9.7 76 0.1 6.5 41 20.5 0
06:30 - 07:00 9.3 9.8 8.8 86 0.3 4.0 32 9.7 0
07:00 - 07:30 8.7 8.8 8.6 93 0.5 2.5 34 7.9 3
07:30 - 08:00 8.8 8.8 8.7 95 0.8 3.2 2 7.6 13
08:00 - 08:30 8.9 9.0 8.8 95 0.7 2.9 1 7.6 23
08:30 - 09:00 9.1 9.3 9.0 95 0.8 1.1 343 3.6 42
09:00 - 09:30 9.4 9.5 9.3 95 1.0 2.9 326 5.4 45
09:30 - 10:00 9.5 9.5 9.4 94 1.6 3.6 321 10.4 53
10:00 - 10:30 9.6 9.8 9.5 94 0.8 2.9 315 6.5 89
10:30 - 11:00 10.1 10.2 9.9 93 0.0 2.5 2 7.6 119
11:00 - 11:30 10.4 10.5 10.2 91 0.1 5.4 306 20.5 171
11:30 - 12:00 11.2 11.8 10.5 85 0.0 13.7 309 31.3 551
12:00 - 12:30 12.3 12.6 11.7 80 0.0 10.8 305 28.1 616
12:30 - 13:00 12.6 12.8 12.1 75 0.0 10.1 309 24.1 544
13:00 - 13:30 12.0 12.4 11.6 75 0.0 13.3 308 34.9 320
13:30 - 14:00 12.4 12.7 12.1 73 0.0 17.6 301 37.4 409
14:00 - 14:30 12.6 12.9 12.5 70 0.0 21.6 302 42.1 362
14:30 - 15:00 13.1 13.4 13.0 69 0.0 15.1 307 32.0 284
15:00 - 15:30 13.4 13.6 13.3 71 0.0 9.4 307 26.6 201
15:30 - 16:00 13.3 13.4 13.2 72 0.0 14.0 300 28.4 113
16:00 - 16:30 13.1 13.2 12.9 70 0.0 15.8 293 37.1 30
16:30 - 17:00 12.7 13.0 12.5 73 0.0 17.6 293 32.8 1
17:00 - 17:30 12.6 12.7 12.5 68 0.0 22.0 294 41.0 0
17:30 - 18:00 12.8 13.0 12.6 58 0.0 19.4 296 35.3 0
18:00 - 18:30 12.5 12.8 12.3 57 0.0 15.1 296 36.7 0
18:30 - 19:00 12.1 12.4 11.7 57 0.0 6.1 311 15.1 0
19:00 - 19:30 11.7 12.1 11.0 57 0.0 5.0 343 21.2 0
19:30 - 20:00 10.8 11.5 10.4 61 0.0 3.2 141 10.1 0
20:00 - 20:30 10.2 10.8 9.8 67 0.0 5.0 182 10.8 0
20:30 - 21:00 9.5 9.8 9.1 72 0.0 6.8 218 14.4 0
21:00 - 21:30 9.1 9.6 8.6 74 0.0 5.4 231 9.0 0
21:30 - 22:00 9.0 10.0 8.2 75 0.0 9.0 273 14.8 0
22:00 - 22:30 8.7 9.8 7.4 75 0.0 4.7 326 11.2 0
22:30 - 23:00 8.2 9.1 7.3 79 0.0 7.9 324 15.8 0

Les dades en taronja només han passat un control de qualitat automàtic. Resta pendent la seva validació definitiva.